CST,Max TemperatureF,Mean TemperatureF,Min TemperatureF,Max Dew PointF,MeanDew PointF,Min DewpointF,Max Humidity, Mean Humidity, Min Humidity, Max Sea Level PressureIn, Mean Sea Level PressureIn, Min Sea Level PressureIn, Max VisibilityMiles, Mean VisibilityMiles, Min VisibilityMiles, Max Wind SpeedMPH, Mean Wind SpeedMPH, Max Gust SpeedMPH,PrecipitationIn, CloudCover, Events, WindDirDegrees
2014-5-1,88,84,80,79,77,77,91,76,64,29.91,29.85,29.79,9,6,4,15,10,,0.00,4,Rain-Thunderstorm,87
2014-5-2,87,80,72,78,75,70,100,81,63,29.93,29.85,29.79,12,7,2,14,8,,3.19,4,Rain-Thunderstorm,90
2014-5-3,88,81,74,77,76,73,100,89,68,29.99,29.94,29.87,12,6,0,9,3,,0.24,5,Fog-Rain-Thunderstorm,304
2014-5-4,86,80,73,77,74,72,100,83,62,30.06,30.01,29.96,12,7,2,13,8,,0.94,5,Rain-Thunderstorm,22
2014-5-5,87,80,72,75,73,71,97,75,55,30.03,29.96,29.90,14,8,6,9,6,,0.00,3,,353
2014-5-6,87,81,75,77,75,73,100,75,56,29.94,29.89,29.84,12,8,6,8,3,,0.00,5,,126
2014-5-7,87,82,78,76,75,73,83,74,62,29.94,29.90,29.86,12,8,6,14,8,,0.00,4,Rain,96
2014-5-8,87,84,80,76,75,73,84,72,58,29.96,29.92,29.88,14,8,6,13,9,,0.00,4,,98
2014-5-9,87,83,79,77,76,75,89,75,65,29.95,29.90,29.84,12,8,6,13,9,23,0.00,5,,96
2014-5-10,87,84,80,77,76,75,84,73,62,29.91,29.86,29.80,12,8,6,12,9,,0.00,4,,98
2014-5-11,86,83,80,77,76,74,89,76,67,29.90,29.85,29.79,12,8,6,13,9,,0.00,4,,99
2014-5-12,87,84,80,78,75,73,84,72,60,29.90,29.86,29.82,14,8,6,14,10,,0.00,4,,96
2014-5-13,87,82,78,76,74,73,84,72,60,29.88,29.84,29.79,12,8,6,15,10,,0.00,3,,87
2014-5-14,89,83,77,77,75,73,89,73,59,29.94,29.88,29.84,12,8,6,15,6,,0.00,2,,87
2014-5-15,86,80,73,77,75,72,94,81,66,30.03,29.97,29.92,14,8,5,8,4,,0.12,4,Rain,37
2014-5-16,86,80,73,77,72,70,94,77,55,30.07,30.01,29.95,12,8,6,14,11,,0.00,6,,343
2014-5-17,85,78,71,75,70,65,100,77,58,30.03,29.98,29.92,12,8,6,14,9,,0.00,5,Rain,345
2014-5-18,87,80,73,75,73,71,94,75,56,29.98,29.93,29.88,14,8,6,12,4,,0.00,2,,54
2014-5-19,87,81,75,77,76,73,95,81,68,29.99,29.94,29.90,12,8,6,9,4,,0.04,4,Rain,55
2014-5-20,87,81,75,78,76,75,100,81,66,30.00,29.95,29.90,12,8,6,14,6,,0.00,3,Rain,43
2014-5-21,87,82,78,79,76,75,94,79,67,29.98,29.94,29.90,14,8,1,15,8,,0.08,4,Rain,76
2014-5-22,88,82,75,77,76,73,94,74,60,29.99,29.95,29.90,12,8,6,14,7,,0.08,5,,83
2014-5-23,86,82,77,80,77,75,92,81,65,30.01,29.97,29.92,12,8,2,14,7,,0.12,3,Rain,94
2014-5-24,87,84,80,79,77,75,89,78,70,30.00,29.95,29.90,12,8,6,13,8,,0.12,4,,87
2014-5-25,88,84,79,79,76,75,84,74,64,29.97,29.94,29.90,12,8,6,14,11,,0.04,4,,92
2014-5-26,88,84,81,77,75,73,84,72,60,30.01,29.97,29.93,12,8,5,15,11,,0.00,5,Rain,99
2014-5-27,88,83,78,77,76,74,94,73,60,30.00,29.95,29.89,14,9,6,12,8,,0.01,3,Rain,107
2014-5-28,89,84,79,77,76,75,86,74,62,29.94,29.89,29.84,12,8,6,12,8,,0.00,4,,106
2014-5-29,88,84,80,79,78,75,84,76,66,29.89,29.84,29.79,12,8,6,12,7,,0.00,5,,110
2014-5-30,86,84,81,79,78,76,89,80,73,29.88,29.83,29.77,12,8,6,12,6,,0.00,4,Rain,96
2014-5-31,85,82,80,81,78,77,100,88,75,29.86,29.82,29.77,12,8,3,7,5,,0.28,5,Rain,113